Time;durP1;ratioP1;P1;durP2;ratioP2;P2;SDS_P1;SDS_P2;PMS_P1;PMS_P2;Temp;Humidity;BMP_temperature;BMP_pressure;BME280_temperature;BME280_humidity;BME280_pressure;Samples;Min_cycle;Max_cycle;Signal;HPM_P1;HPM_P2
2023/11/20 00:02:14;;;;;;;;;;;;;;;;;;5061277;28;19916;-87
2023/11/20 00:04:39;;;;;;;;;;;;;;;;;;5083413;28;19947;-87
2023/11/20 00:07:05;;;;;;;;;;;;;;;;;;5080467;28;19966;-88
2023/11/20 00:09:32;;;;;;;;;;;;;;;;;;5086557;28;19935;-87
2023/11/20 00:11:58;;;;;;;;;;;;;;;;;;5080702;28;20497;-87
2023/11/20 00:14:24;;;;;;;;;;;;;;;;;;5081976;28;19908;-86
2023/11/20 00:16:50;;;;;;;;;;;;;;;;;;5085292;28;19947;-87
2023/11/20 00:19:17;;;;;;;;;;;;;;;;;;5086616;28;20020;-87
2023/11/20 00:21:43;;;;;;;;;;;;;;;;;;5083374;28;19919;-88
2023/11/20 00:24:09;;;;;;;;;;;;;;;;;;5084852;28;19916;-87
2023/11/20 00:26:35;;;;;;;;;;;;;;;;;;5081657;28;19966;-88
2023/11/20 00:29:01;;;;;;;;;;;;;;;;;;5077559;28;19939;-87
2023/11/20 00:31:27;;;;;;;;;;;;;;;;;;5083909;28;20346;-87
2023/11/20 00:33:53;;;;;;;;;;;;;;;;;;5077652;28;20370;-87
2023/11/20 00:36:19;;;;;;;;;;;;;;;;;;5083469;28;20355;-88
2023/11/20 00:38:45;;;;;;;;;;;;;;;;;;5083240;28;19992;-88
2023/11/20 00:41:11;;;;;;;;;;;;;;;;;;5081519;28;19934;-88
2023/11/20 00:43:37;;;;;;;;;;;;;;;;;;5076534;28;20360;-87
2023/11/20 00:46:03;;;;;;;;;;;;;;;;;;5090843;28;20011;-87
2023/11/20 00:48:29;;;;;;;;;;;;;;;;;;5084291;28;19959;-88
2023/11/20 00:50:54;;;;;;;;;;;;;;;;;;5082665;28;19939;-87
2023/11/20 00:53:21;;;;;;;;;;;;;;;;;;5085993;28;20015;-89
2023/11/20 00:55:47;;;;;;;;;;;;;;;;;;5084333;28;19920;-88
2023/11/20 00:58:13;;;;;;;;;;;;;;;;;;5070509;28;20389;-89
2023/11/20 01:00:39;;;;;;;;;;;;;;;;;;5083226;28;20312;-87
2023/11/20 01:03:04;;;;;;;;;;;;;;;;;;5085846;28;19954;-88
2023/11/20 01:05:30;;;;;;;;;;;;;;;;;;5098981;28;19977;-88
2023/11/20 01:07:56;;;;;;;;;;;;;;;;;;5083423;28;20049;-87
2023/11/20 01:10:22;;;;;;;;;;;;;;;;;;5091193;28;19962;-87
2023/11/20 01:12:49;;;;;;;;;;;;;;;;;;5069305;28;20344;-89
2023/11/20 01:15:14;;;;;;;;;;;;;;;;;;5070055;28;19959;-87
2023/11/20 01:17:40;;;;;;;;;;;;;;;;;;5084089;28;19970;-88
2023/11/20 01:20:06;;;;;;;;;;;;;;;;;;5084099;28;20026;-88
2023/11/20 01:22:32;;;;;;;;;;;;;;;;;;5087421;28;19955;-87
2023/11/20 01:24:58;;;;;;;;;;;;;;;;;;5078015;28;19959;-88
2023/11/20 01:27:24;;;;;;;;;;;;;;;;;;5088077;28;19962;-87
2023/11/20 01:29:50;;;;;;;;;;;;;;;;;;5087220;28;19940;-88
2023/11/20 01:32:16;;;;;;;;;;;;;;;;;;5082724;28;19936;-87
2023/11/20 01:34:43;;;;;;;;;;;;;;;;;;5078694;28;19974;-83
2023/11/20 01:37:09;;;;;;;;;;;;;;;;;;5079254;28;20022;-85
2023/11/20 01:39:35;;;;;;;;;;;;;;;;;;5076632;28;19912;-84
2023/11/20 01:42:01;;;;;;;;;;;;;;;;;;5083831;28;19950;-83
2023/11/20 01:44:27;;;;;;;;;;;;;;;;;;5083326;28;20315;-84
2023/11/20 01:46:53;;;;;;;;;;;;;;;;;;5081340;28;19983;-85
2023/11/20 01:49:20;;;;;;;;;;;;;;;;;;5081126;28;19935;-84
2023/11/20 01:51:46;;;;;;;;;;;;;;;;;;5084939;28;19935;-84
2023/11/20 01:54:13;;;;;;;;;;;;;;;;;;5092341;28;19912;-84
2023/11/20 01:56:39;;;;;;;;;;;;;;;;;;5079811;28;20421;-83
2023/11/20 01:59:05;;;;;;;;;;;;;;;;;;5081429;28;19968;-83
2023/11/20 02:01:32;;;;;;;;;;;;;;;;;;5082200;28;19955;-83
2023/11/20 02:03:58;;;;;;;;;;;;;;;;;;5079334;28;20308;-83
2023/11/20 02:06:24;;;;;;;;;;;;;;;;;;5083535;28;19994;-83
2023/11/20 02:08:50;;;;;;;;;;;;;;;;;;5077740;28;19939;-84
2023/11/20 02:11:16;;;;;;;;;;;;;;;;;;5082048;28;19923;-84
2023/11/20 02:13:42;;;;;;;;;;;;;;;;;;5084355;28;20031;-85
2023/11/20 02:16:08;;;;;;;;;;;;;;;;;;5080965;28;19956;-83
2023/11/20 02:18:34;;;;;;;;;;;;;;;;;;5080554;28;19923;-84
2023/11/20 02:21:00;;;;;;;;;;;;;;;;;;5079280;28;20297;-84
2023/11/20 02:23:26;;;;;;;;;;;;;;;;;;5085140;28;20317;-85
2023/11/20 02:25:52;;;;;;;;;;;;;;;;;;5076868;28;19915;-83
2023/11/20 02:28:18;;;;;;;;;;;;;;;;;;5083794;28;19951;-84
2023/11/20 02:30:44;;;;;;;;;;;;;;;;;;5060265;28;20351;-83
2023/11/20 02:33:10;;;;;;;;;;;;;;;;;;5080047;28;20423;-83
2023/11/20 02:35:36;;;;;;;;;;;;;;;;;;5079112;28;19981;-85
2023/11/20 02:38:02;;;;;;;;;;;;;;;;;;5082115;28;19974;-84
2023/11/20 02:40:28;;;;;;;;;;;;;;;;;;5081490;28;19934;-83
2023/11/20 02:42:55;;;;;;;;;;;;;;;;;;5057859;28;20002;-84
2023/11/20 02:45:21;;;;;;;;;;;;;;;;;;5073577;28;20315;-84
2023/11/20 02:47:47;;;;;;;;;;;;;;;;;;5077236;28;19974;-84
2023/11/20 02:50:13;;;;;;;;;;;;;;;;;;5078232;28;19947;-86
2023/11/20 02:52:39;;;;;;;;;;;;;;;;;;5077877;28;19986;-84
2023/11/20 02:55:06;;;;;;;;;;;;;;;;;;5076027;28;19913;-84
2023/11/20 02:57:32;;;;;;;;;;;;;;;;;;5079902;28;19912;-84
2023/11/20 02:59:58;;;;;;;;;;;;;;;;;;5076888;28;20181;-84
2023/11/20 03:02:24;;;;;;;;;;;;;;;;;;5080677;28;20064;-83
2023/11/20 03:04:54;;;;;;;;;;;;;;;;;;5082876;28;19908;-83
2023/11/20 03:07:20;;;;;;;;;;;;;;;;;;5078431;28;19976;-83
2023/11/20 03:09:46;;;;;;;;;;;;;;;;;;5082395;28;19947;-83
2023/11/20 03:12:12;;;;;;;;;;;;;;;;;;5076439;28;19951;-84
2023/11/20 03:14:39;;;;;;;;;;;;;;;;;;5080346;28;20437;-83
2023/11/20 03:17:05;;;;;;;;;;;;;;;;;;5079543;28;19916;-84
2023/11/20 03:19:31;;;;;;;;;;;;;;;;;;5080071;28;19955;-84
2023/11/20 03:21:57;;;;;;;;;;;;;;;;;;5076705;28;20040;-83
2023/11/20 03:24:23;;;;;;;;;;;;;;;;;;5081151;28;19963;-84
2023/11/20 03:26:49;;;;;;;;;;;;;;;;;;5073629;28;19916;-86
2023/11/20 03:29:15;;;;;;;;;;;;;;;;;;5074607;28;19976;-83
2023/11/20 03:31:41;;;;;;;;;;;;;;;;;;5079306;28;19915;-85
2023/11/20 03:34:07;;;;;;;;;;;;;;;;;;5076623;28;19961;-84
2023/11/20 03:36:33;;;;;;;;;;;;;;;;;;5080371;28;19958;-84
2023/11/20 03:38:59;;;;;;;;;;;;;;;;;;5060333;28;19986;-84
2023/11/20 03:41:25;;;;;;;;;;;;;;;;;;5077628;28;20311;-82
2023/11/20 03:43:51;;;;;;;;;;;;;;;;;;5078936;28;19939;-84
2023/11/20 03:46:17;;;;;;;;;;;;;;;;;;5082429;28;19948;-83
2023/11/20 03:48:42;;;;;;;;;;;;;;;;;;5061959;28;19959;-83
2023/11/20 03:51:08;;;;;;;;;;;;;;;;;;5079520;28;19926;-84
2023/11/20 03:53:34;;;;;;;;;;;;;;;;;;5077819;28;19920;-84
2023/11/20 03:56:00;;;;;;;;;;;;;;;;;;5084261;28;19931;-84
2023/11/20 03:58:26;;;;;;;;;;;;;;;;;;5091295;28;19958;-86
2023/11/20 04:00:52;;;;;;;;;;;;;;;;;;5084311;28;20007;-82
2023/11/20 04:03:18;;;;;;;;;;;;;;;;;;5082657;28;19986;-84
2023/11/20 04:05:44;;;;;;;;;;;;;;;;;;5081000;28;19951;-83
2023/11/20 04:08:10;;;;;;;;;;;;;;;;;;5082363;28;19958;-83
2023/11/20 04:10:38;;;;;;;;;;;;;;;;;;5082056;28;19947;-84
2023/11/20 04:13:04;;;;;;;;;;;;;;;;;;5085150;28;20278;-84
2023/11/20 04:15:30;;;;;;;;;;;;;;;;;;5079990;28;20482;-84
2023/11/20 04:17:56;;;;;;;;;;;;;;;;;;5081349;28;20014;-83
2023/11/20 04:20:22;;;;;;;;;;;;;;;;;;5085039;28;19954;-85
2023/11/20 04:22:49;;;;;;;;;;;;;;;;;;5083997;28;19958;-83
2023/11/20 04:25:15;;;;;;;;;;;;;;;;;;5078330;28;19982;-85
2023/11/20 04:27:41;;;;;;;;;;;;;;;;;;5081600;28;19964;-85
2023/11/20 04:30:08;;;;;;;;;;;;;;;;;;5082603;28;19982;-83
2023/11/20 04:32:34;;;;;;;;;;;;;;;;;;5080721;28;19996;-83
2023/11/20 04:35:00;;;;;;;;;;;;;;;;;;5067382;28;20035;-83
2023/11/20 04:37:25;;;;;;;;;;;;;;;;;;5082635;28;19947;-84
2023/11/20 04:39:52;;;;;;;;;;;;;;;;;;5081533;28;19962;-82
2023/11/20 04:42:18;;;;;;;;;;;;;;;;;;5082329;28;19962;-83
2023/11/20 04:44:44;;;;;;;;;;;;;;;;;;5083438;28;19962;-83
2023/11/20 04:47:10;;;;;;;;;;;;;;;;;;5082628;28;19952;-83
2023/11/20 04:49:36;;;;;;;;;;;;;;;;;;5081435;28;20371;-83
2023/11/20 04:52:02;;;;;;;;;;;;;;;;;;5077432;28;20030;-83
2023/11/20 04:54:28;;;;;;;;;;;;;;;;;;5081146;28;19928;-83
2023/11/20 04:56:54;;;;;;;;;;;;;;;;;;5083933;28;19930;-83
2023/11/20 04:59:19;;;;;;;;;;;;;;;;;;5082595;28;19959;-84
2023/11/20 05:01:45;;;;;;;;;;;;;;;;;;5080215;28;20001;-85
2023/11/20 05:04:11;;;;;;;;;;;;;;;;;;5064382;28;19985;-83
2023/11/20 05:06:37;;;;;;;;;;;;;;;;;;5080049;28;19943;-85
2023/11/20 05:09:03;;;;;;;;;;;;;;;;;;5080003;28;20316;-86
2023/11/20 05:11:29;;;;;;;;;;;;;;;;;;5082806;28;19943;-86
2023/11/20 05:13:58;;;;;;;;;;;;;;;;;;5086117;28;20007;-86
2023/11/20 05:16:25;;;;;;;;;;;;;;;;;;5083065;28;19920;-86
2023/11/20 05:18:50;;;;;;;;;;;;;;;;;;5082471;28;19916;-86
2023/11/20 05:21:17;;;;;;;;;;;;;;;;;;5085802;28;20017;-86
2023/11/20 05:23:43;;;;;;;;;;;;;;;;;;5080351;28;20541;-86
2023/11/20 05:26:09;;;;;;;;;;;;;;;;;;5082683;28;20308;-86
2023/11/20 05:28:35;;;;;;;;;;;;;;;;;;5065626;28;20375;-86
2023/11/20 05:31:01;;;;;;;;;;;;;;;;;;5082742;28;19998;-86
2023/11/20 05:33:27;;;;;;;;;;;;;;;;;;5081787;28;19970;-86
2023/11/20 05:35:53;;;;;;;;;;;;;;;;;;5094284;28;19954;-86
2023/11/20 05:38:18;;;;;;;;;;;;;;;;;;5091699;28;20087;-86
2023/11/20 05:40:46;;;;;;;;;;;;;;;;;;5082348;28;20056;-86
2023/11/20 05:43:12;;;;;;;;;;;;;;;;;;5084915;28;20724;-87
2023/11/20 05:45:38;;;;;;;;;;;;;;;;;;5076366;28;19994;-87
2023/11/20 05:48:04;;;;;;;;;;;;;;;;;;5076378;28;19961;-86
2023/11/20 05:50:30;;;;;;;;;;;;;;;;;;5089220;28;19963;-86
2023/11/20 05:52:56;;;;;;;;;;;;;;;;;;5105383;28;20034;-87
2023/11/20 05:55:22;;;;;;;;;;;;;;;;;;5087870;28;19985;-84
2023/11/20 05:57:48;;;;;;;;;;;;;;;;;;5081902;28;20355;-86
2023/11/20 06:00:14;;;;;;;;;;;;;;;;;;5085729;28;19916;-85
2023/11/20 06:02:40;;;;;;;;;;;;;;;;;;5090113;28;19912;-85
2023/11/20 06:05:06;;;;;;;;;;;;;;;;;;5089572;28;19947;-85
2023/11/20 06:07:32;;;;;;;;;;;;;;;;;;5101739;28;19922;-85
2023/11/20 06:09:58;;;;;;;;;;;;;;;;;;5073124;28;20299;-86
2023/11/20 06:12:24;;;;;;;;;;;;;;;;;;5087450;28;19915;-85
2023/11/20 06:14:50;;;;;;;;;;;;;;;;;;5076577;28;19912;-87
2023/11/20 06:17:17;;;;;;;;;;;;;;;;;;5093506;28;19994;-85
2023/11/20 06:19:44;;;;;;;;;;;;;;;;;;5095138;28;20048;-87
2023/11/20 06:22:10;;;;;;;;;;;;;;;;;;5104013;28;20405;-87
2023/11/20 06:24:37;;;;;;;;;;;;;;;;;;5103870;28;20394;-82
2023/11/20 06:27:03;;;;;;;;;;;;;;;;;;5086198;28;20354;-85
2023/11/20 06:29:29;;;;;;;;;;;;;;;;;;5083920;28;19975;-86
2023/11/20 06:31:55;;;;;;;;;;;;;;;;;;5069814;28;19943;-85
2023/11/20 06:34:22;;;;;;;;;;;;;;;;;;5083373;28;19950;-83
2023/11/20 06:36:48;;;;;;;;;;;;;;;;;;5090641;28;19916;-85
2023/11/20 06:39:14;;;;;;;;;;;;;;;;;;5088907;28;19998;-85
2023/11/20 06:41:42;;;;;;;;;;;;;;;;;;5093807;28;19954;-83
2023/11/20 06:44:08;;;;;;;;;;;;;;;;;;5107903;28;20293;-86
2023/11/20 06:46:34;;;;;;;;;;;;;;;;;;5093975;28;19957;-81
2023/11/20 06:49:00;;;;;;;;;;;;;;;;;;5081765;28;19911;-83
2023/11/20 06:51:26;;;;;;;;;;;;;;;;;;5083584;28;19963;-85
2023/11/20 06:53:53;;;;;;;;;;;;;;;;;;5078969;28;19957;-83
2023/11/20 06:56:21;;;;;;;;;;;;;;;;;;5051398;28;19961;-83
2023/11/20 06:58:47;;;;;;;;;;;;;;;;;;5080887;28;19916;-85
2023/11/20 07:01:13;;;;;;;;;;;;;;;;;;5053534;28;20399;-83
2023/11/20 07:03:42;;;;;;;;;;;;;;;;;;5079555;28;20057;-84
2023/11/20 07:06:09;;;;;;;;;;;;;;;;;;5065554;28;20332;-85
2023/11/20 07:08:34;;;;;;;;;;;;;;;;;;5066923;28;19924;-85
2023/11/20 07:11:00;;;;;;;;;;;;;;;;;;5073062;28;20306;-85
2023/11/20 07:13:27;;;;;;;;;;;;;;;;;;5086558;28;19959;-84
2023/11/20 07:15:53;;;;;;;;;;;;;;;;;;5087533;28;19935;-83
2023/11/20 07:18:19;;;;;;;;;;;;;;;;;;5077479;28;20360;-84
2023/11/20 07:20:45;;;;;;;;;;;;;;;;;;5078132;28;19956;-85
2023/11/20 07:23:11;;;;;;;;;;;;;;;;;;5069728;28;19912;-84
2023/11/20 07:25:37;;;;;;;;;;;;;;;;;;5083222;28;19912;-86
2023/11/20 07:28:04;;;;;;;;;;;;;;;;;;5076262;28;19920;-86
2023/11/20 07:30:30;;;;;;;;;;;;;;;;;;5075743;28;19916;-87
2023/11/20 07:32:56;;;;;;;;;;;;;;;;;;5051933;28;20018;-86
2023/11/20 07:35:22;;;;;;;;;;;;;;;;;;5070317;28;19947;-86
2023/11/20 07:37:47;;;;;;;;;;;;;;;;;;5089224;28;19947;-86
2023/11/20 07:40:15;;;;;;;;;;;;;;;;;;5068886;28;20054;-86
2023/11/20 07:42:41;;;;;;;;;;;;;;;;;;5072542;28;20332;-86
2023/11/20 07:45:08;;;;;;;;;;;;;;;;;;5081831;28;19943;-86
2023/11/20 07:47:34;;;;;;;;;;;;;;;;;;5081280;28;20360;-86
2023/11/20 07:50:00;;;;;;;;;;;;;;;;;;5073476;28;19947;-86
2023/11/20 07:52:26;;;;;;;;;;;;;;;;;;5087924;28;19995;-86
2023/11/20 07:54:52;;;;;;;;;;;;;;;;;;5093749;28;19908;-87
2023/11/20 07:57:18;;;;;;;;;;;;;;;;;;5095793;28;19922;-87
2023/11/20 07:59:44;;;;;;;;;;;;;;;;;;5094602;28;19919;-87
2023/11/20 08:02:10;;;;;;;;;;;;;;;;;;5093248;28;19973;-86
2023/11/20 08:04:36;;;;;;;;;;;;;;;;;;5072989;28;19952;-87
2023/11/20 08:07:04;;;;;;;;;;;;;;;;;;5093789;28;19963;-87
2023/11/20 08:09:30;;;;;;;;;;;;;;;;;;5096821;28;19908;-86
2023/11/20 08:11:56;;;;;;;;;;;;;;;;;;5092850;28;19994;-87
2023/11/20 08:14:22;;;;;;;;;;;;;;;;;;5077097;28;19926;-87
2023/11/20 08:16:48;;;;;;;;;;;;;;;;;;5082034;28;19970;-87
2023/11/20 08:19:15;;;;;;;;;;;;;;;;;;5081557;28;20272;-87
2023/11/20 08:21:41;;;;;;;;;;;;;;;;;;5089181;28;19926;-87
2023/11/20 08:24:07;;;;;;;;;;;;;;;;;;5092677;28;19912;-88
2023/11/20 08:26:33;;;;;;;;;;;;;;;;;;5088320;28;19944;-87
2023/11/20 08:28:59;;;;;;;;;;;;;;;;;;5076585;28;20248;-87
2023/11/20 08:31:25;;;;;;;;;;;;;;;;;;5094252;28;19923;-88
2023/11/20 08:33:51;;;;;;;;;;;;;;;;;;5088385;28;19916;-87
2023/11/20 08:36:17;;;;;;;;;;;;;;;;;;5081167;28;20408;-84
2023/11/20 08:38:43;;;;;;;;;;;;;;;;;;5072462;28;19952;-84
2023/11/20 08:41:09;;;;;;;;;;;;;;;;;;5063673;28;19955;-85
2023/11/20 08:43:35;;;;;;;;;;;;;;;;;;5066669;28;19963;-84
2023/11/20 08:46:01;;;;;;;;;;;;;;;;;;5074617;28;19994;-84
2023/11/20 08:48:27;;;;;;;;;;;;;;;;;;5086649;28;19922;-83
2023/11/20 08:50:54;;;;;;;;;;;;;;;;;;5069011;28;20012;-85
2023/11/20 08:53:21;;;;;;;;;;;;;;;;;;5081948;28;19966;-85
2023/11/20 08:55:48;;;;;;;;;;;;;;;;;;5083346;28;19943;-83
2023/11/20 08:58:14;;;;;;;;;;;;;;;;;;5071754;28;19908;-84
2023/11/20 09:00:40;;;;;;;;;;;;;;;;;;5080252;28;20029;-85
2023/11/20 09:03:06;;;;;;;;;;;;;;;;;;5079363;28;19954;-85
2023/11/20 09:05:32;;;;;;;;;;;;;;;;;;5064474;28;19916;-85
2023/11/20 09:07:58;;;;;;;;;;;;;;;;;;5090550;28;19949;-85
2023/11/20 09:10:24;;;;;;;;;;;;;;;;;;5079671;28;19919;-84
2023/11/20 09:12:50;;;;;;;;;;;;;;;;;;5062215;28;19912;-84
2023/11/20 09:15:16;;;;;;;;;;;;;;;;;;5074760;28;19915;-84
2023/11/20 09:17:42;;;;;;;;;;;;;;;;;;5074926;28;20037;-84
2023/11/20 09:20:12;;;;;;;;;;;;;;;;;;5077269;28;20558;-84
2023/11/20 09:22:38;;;;;;;;;;;;;;;;;;5079916;28;19907;-84
2023/11/20 09:25:04;;;;;;;;;;;;;;;;;;5061922;28;19990;-86
2023/11/20 09:27:30;;;;;;;;;;;;;;;;;;5075404;28;20427;-85
2023/11/20 09:29:56;;;;;;;;;;;;;;;;;;5086993;28;19963;-85
2023/11/20 09:32:22;;;;;;;;;;;;;;;;;;5079149;28;19920;-84
2023/11/20 09:34:48;;;;;;;;;;;;;;;;;;5070048;28;19978;-84
2023/11/20 09:37:14;;;;;;;;;;;;;;;;;;5069044;28;19923;-85
2023/11/20 09:39:42;;;;;;;;;;;;;;;;;;5081695;28;19918;-85
2023/11/20 09:42:08;;;;;;;;;;;;;;;;;;5083998;28;19908;-84
2023/11/20 09:44:37;;;;;;;;;;;;;;;;;;5084706;28;19923;-85
2023/11/20 09:47:03;;;;;;;;;;;;;;;;;;5085112;28;19912;-88
2023/11/20 09:49:29;;;;;;;;;;;;;;;;;;5078746;28;20008;-88
2023/11/20 09:51:55;;;;;;;;;;;;;;;;;;5076251;28;20387;-88
2023/11/20 09:54:21;;;;;;;;;;;;;;;;;;5078303;28;19908;-86
2023/11/20 09:56:47;;;;;;;;;;;;;;;;;;5073348;28;19958;-87
2023/11/20 09:59:13;;;;;;;;;;;;;;;;;;5080412;28;19943;-87
2023/11/20 10:01:43;;;;;;;;;;;;;;;;;;5077611;28;19912;-87
2023/11/20 10:04:09;;;;;;;;;;;;;;;;;;5070322;28;19908;-86
2023/11/20 10:06:35;;;;;;;;;;;;;;;;;;5088789;28;19947;-86
2023/11/20 10:09:02;;;;;;;;;;;;;;;;;;5084226;28;19923;-86
2023/11/20 10:11:28;;;;;;;;;;;;;;;;;;5077968;28;19916;-87
2023/11/20 10:13:55;;;;;;;;;;;;;;;;;;5078747;28;20618;-87
2023/11/20 10:16:24;;;;;;;;;;;;;;;;;;5085340;28;20310;-87
2023/11/20 10:18:50;;;;;;;;;;;;;;;;;;5081653;28;19923;-87
2023/11/20 10:21:17;;;;;;;;;;;;;;;;;;5061042;28;19912;-86
2023/11/20 10:23:43;;;;;;;;;;;;;;;;;;5079994;28;19919;-88
2023/11/20 10:26:10;;;;;;;;;;;;;;;;;;5051622;28;20386;-87
2023/11/20 10:28:36;;;;;;;;;;;;;;;;;;5079351;28;19915;-87
2023/11/20 10:31:03;;;;;;;;;;;;;;;;;;5075985;28;20435;-87
2023/11/20 10:33:28;;;;;;;;;;;;;;;;;;5085665;28;19995;-87
2023/11/20 10:35:54;;;;;;;;;;;;;;;;;;5084413;28;20331;-87
2023/11/20 10:38:20;;;;;;;;;;;;;;;;;;5070122;28;20620;-88
2023/11/20 10:40:50;;;;;;;;;;;;;;;;;;5072372;28;20062;-87
2023/11/20 10:43:16;;;;;;;;;;;;;;;;;;5076434;28;19935;-87
2023/11/20 10:45:42;;;;;;;;;;;;;;;;;;5075108;28;20352;-88
2023/11/20 10:48:08;;;;;;;;;;;;;;;;;;5079074;28;20267;-87
2023/11/20 10:50:38;;;;;;;;;;;;;;;;;;5087644;28;20004;-88
2023/11/20 10:53:07;;;;;;;;;;;;;;;;;;5062194;28;19920;-88
2023/11/20 10:55:33;;;;;;;;;;;;;;;;;;5079532;28;19916;-87
2023/11/20 10:57:59;;;;;;;;;;;;;;;;;;5082827;28;19958;-83
2023/11/20 11:00:25;;;;;;;;;;;;;;;;;;5089105;28;19916;-84
2023/11/20 11:02:51;;;;;;;;;;;;;;;;;;5085448;28;20367;-84
2023/11/20 11:05:17;;;;;;;;;;;;;;;;;;5086083;28;19912;-85
2023/11/20 11:07:43;;;;;;;;;;;;;;;;;;5078317;28;19995;-83
2023/11/20 11:10:14;;;;;;;;;;;;;;;;;;5086003;28;19997;-84
2023/11/20 11:12:41;;;;;;;;;;;;;;;;;;5059562;28;19917;-83
2023/11/20 11:15:07;;;;;;;;;;;;;;;;;;5071788;28;20331;-83
2023/11/20 11:17:33;;;;;;;;;;;;;;;;;;5085700;28;20035;-83
2023/11/20 11:19:59;;;;;;;;;;;;;;;;;;5069901;28;19947;-84
2023/11/20 11:22:25;;;;;;;;;;;;;;;;;;5089421;28;19983;-84
2023/11/20 11:24:51;;;;;;;;;;;;;;;;;;5075756;28;20000;-84
2023/11/20 11:27:16;;;;;;;;;;;;;;;;;;5086383;28;19955;-85
2023/11/20 11:29:43;;;;;;;;;;;;;;;;;;5078379;28;19967;-87
2023/11/20 11:32:09;;;;;;;;;;;;;;;;;;5090721;28;19943;-85
2023/11/20 11:34:35;;;;;;;;;;;;;;;;;;5077492;28;20014;-86
2023/11/20 11:37:01;;;;;;;;;;;;;;;;;;5078852;28;19916;-85
2023/11/20 11:39:27;;;;;;;;;;;;;;;;;;5092144;28;19905;-84
2023/11/20 11:41:53;;;;;;;;;;;;;;;;;;5083301;28;19995;-84
2023/11/20 11:44:19;;;;;;;;;;;;;;;;;;5083256;28;20431;-85
2023/11/20 11:46:46;;;;;;;;;;;;;;;;;;5084061;28;19916;-83
2023/11/20 11:49:12;;;;;;;;;;;;;;;;;;5092586;28;19912;-84
2023/11/20 11:51:38;;;;;;;;;;;;;;;;;;5081087;28;19926;-84
2023/11/20 11:54:03;;;;;;;;;;;;;;;;;;5090481;28;20038;-83
2023/11/20 11:56:29;;;;;;;;;;;;;;;;;;5078395;28;20034;-84
2023/11/20 11:58:55;;;;;;;;;;;;;;;;;;5090030;28;20022;-83
2023/11/20 12:01:21;;;;;;;;;;;;;;;;;;5061497;28;20105;-85
2023/11/20 12:03:48;;;;;;;;;;;;;;;;;;5083875;28;19912;-85
2023/11/20 12:06:14;;;;;;;;;;;;;;;;;;5076812;28;20393;-83
2023/11/20 12:08:39;;;;;;;;;;;;;;;;;;5085118;28;19970;-87
2023/11/20 12:11:05;;;;;;;;;;;;;;;;;;5084487;28;19955;-87
2023/11/20 12:13:32;;;;;;;;;;;;;;;;;;5092932;28;19955;-87
2023/11/20 12:16:07;;;;;;;;;;;;;;;;;;5072688;28;19935;-87
2023/11/20 12:18:33;;;;;;;;;;;;;;;;;;5089323;28;19911;-87
2023/11/20 12:20:58;;;;;;;;;;;;;;;;;;5059673;28;20049;-88
2023/11/20 12:23:25;;;;;;;;;;;;;;;;;;5078692;28;19912;-87
2023/11/20 12:25:53;;;;;;;;;;;;;;;;;;5058230;28;19930;-87
2023/11/20 12:28:19;;;;;;;;;;;;;;;;;;5076021;28;19958;-87
2023/11/20 12:30:45;;;;;;;;;;;;;;;;;;5075357;28;19967;-87
2023/11/20 12:33:11;;;;;;;;;;;;;;;;;;5080453;28;20446;-87
2023/11/20 12:35:39;;;;;;;;;;;;;;;;;;5087739;28;20432;-88
2023/11/20 12:38:05;;;;;;;;;;;;;;;;;;5091374;28;21395;-87
2023/11/20 12:40:31;;;;;;;;;;;;;;;;;;5060178;28;19996;-88
2023/11/20 12:42:57;;;;;;;;;;;;;;;;;;5068863;28;19912;-88
2023/11/20 12:45:24;;;;;;;;;;;;;;;;;;5068095;28;19911;-87
2023/11/20 12:47:50;;;;;;;;;;;;;;;;;;5071764;28;19912;-87
2023/11/20 12:50:16;;;;;;;;;;;;;;;;;;5079325;28;19985;-87
2023/11/20 12:52:41;;;;;;;;;;;;;;;;;;5086955;28;20347;-88
2023/11/20 12:55:07;;;;;;;;;;;;;;;;;;5084244;28;20151;-87
2023/11/20 12:57:33;;;;;;;;;;;;;;;;;;5095021;28;20440;-86
2023/11/20 13:00:00;;;;;;;;;;;;;;;;;;5089653;28;19908;-87
2023/11/20 13:02:28;;;;;;;;;;;;;;;;;;5084940;28;20351;-83
2023/11/20 13:04:54;;;;;;;;;;;;;;;;;;5100579;28;19939;-85
2023/11/20 13:07:19;;;;;;;;;;;;;;;;;;5088961;28;20366;-84
2023/11/20 13:09:45;;;;;;;;;;;;;;;;;;5077683;28;20410;-85
2023/11/20 13:12:12;;;;;;;;;;;;;;;;;;5075105;28;19943;-85
2023/11/20 13:14:38;;;;;;;;;;;;;;;;;;5077030;28;20331;-85
2023/11/20 13:17:04;;;;;;;;;;;;;;;;;;5065392;28;20003;-85
2023/11/20 13:19:30;;;;;;;;;;;;;;;;;;5090409;28;19908;-85
2023/11/20 13:21:56;;;;;;;;;;;;;;;;;;5085980;28;20087;-85
2023/11/20 13:24:22;;;;;;;;;;;;;;;;;;5088093;28;19951;-85
2023/11/20 13:26:48;;;;;;;;;;;;;;;;;;5080529;28;19940;-85
2023/11/20 13:29:14;;;;;;;;;;;;;;;;;;5088736;28;20243;-83
2023/11/20 13:31:40;;;;;;;;;;;;;;;;;;5052474;28;19959;-82
2023/11/20 13:34:06;;;;;;;;;;;;;;;;;;5062084;28;19916;-83
2023/11/20 13:36:32;;;;;;;;;;;;;;;;;;5069218;28;20008;-83
2023/11/20 13:38:58;;;;;;;;;;;;;;;;;;5066918;28;19923;-83
2023/11/20 13:41:24;;;;;;;;;;;;;;;;;;5072543;28;19918;-82
2023/11/20 13:43:52;;;;;;;;;;;;;;;;;;5072451;28;20220;-82
2023/11/20 13:46:18;;;;;;;;;;;;;;;;;;5081601;28;19916;-83
2023/11/20 13:48:44;;;;;;;;;;;;;;;;;;5070602;28;20401;-83
2023/11/20 13:51:10;;;;;;;;;;;;;;;;;;5072018;28;20390;-83
2023/11/20 13:53:36;;;;;;;;;;;;;;;;;;5076937;28;19959;-83
2023/11/20 13:56:03;;;;;;;;;;;;;;;;;;5077776;28;19912;-84
2023/11/20 13:58:29;;;;;;;;;;;;;;;;;;5071707;28;19916;-83
2023/11/20 14:00:58;;;;;;;;;;;;;;;;;;5089024;28;19966;-83
2023/11/20 14:03:24;;;;;;;;;;;;;;;;;;5078581;28;20240;-83
2023/11/20 14:05:50;;;;;;;;;;;;;;;;;;5071384;28;19958;-83
2023/11/20 14:08:16;;;;;;;;;;;;;;;;;;5089923;28;19974;-83
2023/11/20 14:10:42;;;;;;;;;;;;;;;;;;5086482;28;19993;-83
2023/11/20 14:13:08;;;;;;;;;;;;;;;;;;5066613;28;19908;-83
2023/11/20 14:15:34;;;;;;;;;;;;;;;;;;5087031;28;19908;-83
2023/11/20 14:18:00;;;;;;;;;;;;;;;;;;5079455;28;19959;-83
2023/11/20 14:20:26;;;;;;;;;;;;;;;;;;5077365;28;20339;-83
2023/11/20 14:22:52;;;;;;;;;;;;;;;;;;5075435;28;19939;-83
2023/11/20 14:25:18;;;;;;;;;;;;;;;;;;5069140;28;19912;-83
2023/11/20 14:27:47;;;;;;;;;;;;;;;;;;5085526;28;19951;-83
2023/11/20 14:30:14;;;;;;;;;;;;;;;;;;5089867;28;20002;-83
2023/11/20 14:32:42;;;;;;;;;;;;;;;;;;5086899;28;19912;-82
2023/11/20 14:35:08;;;;;;;;;;;;;;;;;;5078054;28;20201;-82
2023/11/20 14:37:33;;;;;;;;;;;;;;;;;;5069120;28;20007;-83
2023/11/20 14:40:00;;;;;;;;;;;;;;;;;;5052047;28;19963;-82
2023/11/20 14:42:27;;;;;;;;;;;;;;;;;;5074244;28;19919;-82
2023/11/20 14:44:53;;;;;;;;;;;;;;;;;;5075833;28;19919;-82
2023/11/20 14:47:19;;;;;;;;;;;;;;;;;;5069638;28;20034;-83
2023/11/20 14:49:45;;;;;;;;;;;;;;;;;;5066082;28;20078;-82
2023/11/20 14:52:12;;;;;;;;;;;;;;;;;;5063606;28;19969;-82
2023/11/20 14:54:38;;;;;;;;;;;;;;;;;;5086156;28;19904;-82
2023/11/20 14:57:04;;;;;;;;;;;;;;;;;;5068577;28;20581;-82
2023/11/20 14:59:30;;;;;;;;;;;;;;;;;;5076701;28;19912;-82
2023/11/20 15:01:56;;;;;;;;;;;;;;;;;;5084262;28;20370;-85
2023/11/20 15:04:22;;;;;;;;;;;;;;;;;;5074154;28;19912;-83
2023/11/20 15:06:48;;;;;;;;;;;;;;;;;;5087400;28;19908;-85
2023/11/20 15:09:14;;;;;;;;;;;;;;;;;;5085800;28;19966;-85
2023/11/20 15:11:40;;;;;;;;;;;;;;;;;;5083188;28;19908;-85
2023/11/20 15:14:06;;;;;;;;;;;;;;;;;;5069911;28;19997;-83
2023/11/20 15:16:32;;;;;;;;;;;;;;;;;;5066395;28;20355;-84
2023/11/20 15:18:58;;;;;;;;;;;;;;;;;;5076699;28;20366;-83
2023/11/20 15:21:24;;;;;;;;;;;;;;;;;;5081127;28;19950;-82
2023/11/20 15:23:50;;;;;;;;;;;;;;;;;;5078356;28;19947;-83
2023/11/20 15:26:15;;;;;;;;;;;;;;;;;;5076407;28;19966;-83
2023/11/20 15:28:41;;;;;;;;;;;;;;;;;;5060642;28;20065;-84
2023/11/20 15:31:07;;;;;;;;;;;;;;;;;;5074424;28;19952;-82
2023/11/20 15:33:33;;;;;;;;;;;;;;;;;;5075306;28;19943;-83
2023/11/20 15:35:59;;;;;;;;;;;;;;;;;;5073372;28;20286;-83
2023/11/20 15:38:25;;;;;;;;;;;;;;;;;;5066865;28;19979;-83
2023/11/20 15:40:51;;;;;;;;;;;;;;;;;;5074599;28;20377;-84
2023/11/20 15:43:17;;;;;;;;;;;;;;;;;;5083410;28;19951;-84
2023/11/20 15:45:43;;;;;;;;;;;;;;;;;;5082608;28;19944;-84
2023/11/20 15:48:10;;;;;;;;;;;;;;;;;;5081978;28;20331;-82
2023/11/20 15:50:36;;;;;;;;;;;;;;;;;;5093345;28;19917;-83
2023/11/20 15:53:02;;;;;;;;;;;;;;;;;;5080842;28;20046;-82
2023/11/20 15:55:28;;;;;;;;;;;;;;;;;;5079202;28;19948;-82
2023/11/20 15:57:55;;;;;;;;;;;;;;;;;;5080909;28;19939;-82
2023/11/20 16:00:22;;;;;;;;;;;;;;;;;;5084174;28;19998;-81
2023/11/20 16:02:49;;;;;;;;;;;;;;;;;;5088257;28;20353;-83
2023/11/20 16:05:15;;;;;;;;;;;;;;;;;;5066072;28;19912;-82
2023/11/20 16:07:41;;;;;;;;;;;;;;;;;;5082727;28;19931;-82
2023/11/20 16:10:07;;;;;;;;;;;;;;;;;;5090956;28;19992;-83
2023/11/20 16:12:35;;;;;;;;;;;;;;;;;;5088392;28;19916;-82
2023/11/20 16:15:04;;;;;;;;;;;;;;;;;;5072876;28;20381;-83
2023/11/20 16:17:30;;;;;;;;;;;;;;;;;;5086213;28;20007;-82
2023/11/20 16:19:56;;;;;;;;;;;;;;;;;;5066144;28;20030;-82
2023/11/20 16:22:22;;;;;;;;;;;;;;;;;;5087404;28;19919;-84
2023/11/20 16:24:51;;;;;;;;;;;;;;;;;;5096017;28;19915;-83
2023/11/20 16:27:17;;;;;;;;;;;;;;;;;;5088104;28;20357;-83
2023/11/20 16:29:43;;;;;;;;;;;;;;;;;;5088124;28;20259;-83
2023/11/20 16:32:09;;;;;;;;;;;;;;;;;;5088021;28;19958;-82
2023/11/20 16:34:36;;;;;;;;;;;;;;;;;;5082908;28;19962;-82
2023/11/20 16:37:02;;;;;;;;;;;;;;;;;;5086695;28;19912;-83
2023/11/20 16:39:29;;;;;;;;;;;;;;;;;;5088411;28;20036;-81